Time;durP1;ratioP1;P1;durP2;ratioP2;P2;SDS_P1;SDS_P2;PMS_P1;PMS_P2;Temp;Humidity;BMP_temperature;BMP_pressure;BME280_temperature;BME280_humidity;BME280_pressure;Samples;Min_cycle;Max_cycle;Signal;HPM_P1;HPM_P2
2022/11/26 00:02:26;;;;;;;282.98;165.38;;;;;;;15.18;75.53;98916.13;4930499;29;20251;-67
2022/11/26 00:05:17;;;;;;;;;;;;;;;15.14;75.20;98920.38;4939796;28;20047;-66
2022/11/26 00:08:20;;;;;;;277.17;158.07;;;;;;;15.04;75.48;98910.19;4931350;29;20450;-67
2022/11/26 00:11:10;;;;;;;285.35;163.25;;;;;;;15.07;75.57;98918.63;4930723;29;20044;-67
2022/11/26 00:13:52;;;;;;;271.77;157.75;;;;;;;15.17;74.87;98919.88;4931402;29;20345;-67
2022/11/26 00:16:41;;;;;;;292.48;158.88;;;;;;;15.18;75.23;98924.25;4930617;29;20079;-67
2022/11/26 00:19:23;;;;;;;276.50;157.48;;;;;;;15.06;74.48;98925.09;4930470;29;20048;-67
2022/11/26 00:22:28;;;;;;;277.73;156.02;;;;;;;15.06;75.03;98930.50;4916413;29;20123;-68
2022/11/26 00:25:15;;;;;;;284.67;163.10;;;;;;;14.98;74.30;98927.31;4946501;28;20609;-66
2022/11/26 00:28:05;;;;;;;270.17;154.35;;;;;;;15.02;75.42;98917.72;4932826;29;20047;-67
2022/11/26 00:30:56;;;;;;;287.92;161.40;;;;;;;15.17;74.14;98926.13;4935845;28;20166;-67
2022/11/26 00:33:45;;;;;;;281.67;157.50;;;;;;;15.12;74.93;98934.13;4915728;29;20051;-67
2022/11/26 00:36:31;;;;;;;273.55;157.00;;;;;;;15.11;74.27;98937.06;4945618;28;20162;-67
2022/11/26 00:39:24;;;;;;;272.25;160.20;;;;;;;15.13;74.73;98938.47;4936367;28;20051;-68
2022/11/26 00:42:09;;;;;;;282.70;158.90;;;;;;;15.07;73.94;98937.56;4932005;28;20138;-67
2022/11/26 00:44:58;;;;;;;270.98;153.57;;;;;;;14.97;75.16;98937.31;4938675;28;20130;-67
2022/11/26 00:47:40;;;;;;;280.20;158.85;;;;;;;15.08;75.18;98939.19;4939396;28;20062;-66
2022/11/26 00:50:32;;;;;;;289.23;159.15;;;;;;;15.06;74.74;98940.50;4935047;28;20058;-67
2022/11/26 00:53:20;;;;;;;288.02;161.73;;;;;;;15.00;75.34;98953.06;4918005;28;20043;-68
2022/11/26 00:56:21;;;;;;;281.27;156.60;;;;;;;14.84;75.06;98949.19;4939591;29;20050;-66
2022/11/26 00:58:57;;;;;;;281.58;158.32;;;;;;;14.74;75.68;98961.66;4937142;28;20051;-68
2022/11/26 01:01:52;;;;;;;295.38;161.50;;;;;;;14.76;75.80;98959.53;4924895;29;20047;-67
2022/11/26 01:04:28;;;;;;;291.90;165.18;;;;;;;14.67;75.50;98961.75;4929328;29;20067;-67
2022/11/26 01:07:16;;;;;;;279.98;156.63;;;;;;;14.67;75.92;98968.00;4932574;28;20095;-67
2022/11/26 01:09:58;;;;;;;298.33;163.98;;;;;;;14.48;76.07;98971.81;4933841;28;20047;-67
2022/11/26 01:12:55;;;;;;;297.15;163.68;;;;;;;14.44;75.72;98981.44;4929424;29;20823;-68
2022/11/26 01:15:31;;;;;;;288.63;162.63;;;;;;;14.37;76.05;98978.88;4927990;29;20051;-67
2022/11/26 01:18:27;;;;;;;285.77;159.30;;;;;;;14.55;75.58;98983.34;4927519;29;20064;-68
2022/11/26 01:21:03;;;;;;;291.38;160.10;;;;;;;14.57;75.90;98981.25;4928776;29;20048;-67
2022/11/26 01:23:59;;;;;;;290.30;161.02;;;;;;;14.67;75.34;98977.97;4928394;29;20763;-68
2022/11/26 01:26:44;;;;;;;301.85;162.50;;;;;;;14.67;75.95;98980.66;4938225;28;20047;-67
2022/11/26 01:29:39;;;;;;;286.13;161.80;;;;;;;14.80;75.28;98979.63;4927689;29;20782;-68
2022/11/26 01:32:28;;;;;;;292.75;156.20;;;;;;;14.65;75.59;98974.69;4913356;29;20060;-68
2022/11/26 01:35:10;;;;;;;296.58;162.73;;;;;;;14.78;75.52;98966.34;4931359;28;20071;-68
2022/11/26 01:38:06;;;;;;;305.30;159.13;;;;;;;14.72;75.27;98969.19;4909819;29;20124;-68
2022/11/26 01:41:14;;;;;;;303.98;160.18;;;;;;;14.55;75.77;98977.13;4916659;29;20036;-68
2022/11/26 01:44:03;;;;;;;;;;;;;;;14.83;75.77;98984.56;4903661;29;20127;-68
2022/11/26 01:46:53;;;;;;;285.67;152.98;;;;;;;14.58;75.82;98987.47;4929119;29;19952;-67
2022/11/26 01:49:37;;;;;;;302.02;166.18;;;;;;;14.60;76.07;98997.00;4929175;29;20051;-68
2022/11/26 01:52:30;;;;;;;294.42;160.48;;;;;;;14.80;76.10;98990.44;4928318;29;20139;-68
2022/11/26 01:55:16;;;;;;;296.15;162.75;;;;;;;14.86;75.47;98995.75;4928950;28;20090;-68
2022/11/26 01:58:05;;;;;;;293.50;163.38;;;;;;;14.85;75.08;98996.78;4909237;29;20623;-67
2022/11/26 02:00:41;;;;;;;296.25;161.20;;;;;;;14.68;75.28;98999.34;4908467;29;20205;-67
2022/11/26 02:03:34;;;;;;;306.95;162.90;;;;;;;14.63;76.13;99004.63;4925453;29;20044;-68
2022/11/26 02:06:25;;;;;;;314.30;159.00;;;;;;;14.61;76.39;99001.34;4933126;28;20075;-68
2022/11/26 02:09:21;;;;;;;283.25;160.73;;;;;;;14.55;76.25;99004.94;4946091;28;20352;-68
2022/11/26 02:11:57;;;;;;;291.45;157.68;;;;;;;14.62;76.52;99011.09;4944026;28;20043;-68
2022/11/26 02:14:53;;;;;;;;;;;;;;;14.83;75.65;99008.88;4946732;28;20055;-68
2022/11/26 02:17:49;;;;;;;303.10;160.77;;;;;;;14.87;76.08;99010.06;4929278;29;19926;-68
2022/11/26 02:20:56;;;;;;;303.90;165.25;;;;;;;14.98;75.90;99014.66;4927366;29;20146;-67
2022/11/26 02:23:50;;;;;;;293.15;162.10;;;;;;;15.05;75.79;99018.03;4945014;28;20046;-66
2022/11/26 02:27:13;;;;;;;297.15;162.90;;;;;;;15.15;75.55;99011.22;4946820;28;20126;-67
2022/11/26 02:30:20;;;;;;;310.20;163.02;;;;;;;15.15;75.44;99013.91;4923881;29;20147;-66
2022/11/26 02:33:23;;;;;;;300.92;166.07;;;;;;;15.25;75.60;99012.28;4933931;28;20127;-67
2022/11/26 02:36:22;;;;;;;297.70;162.25;;;;;;;15.35;75.02;99036.00;4934955;28;20237;-66
2022/11/26 02:39:16;;;;;;;297.80;162.25;;;;;;;15.40;75.79;99041.53;4947489;28;20094;-66
2022/11/26 02:42:07;;;;;;;295.90;162.70;;;;;;;15.40;75.24;99038.00;4932680;29;20050;-65
2022/11/26 02:44:49;;;;;;;316.67;162.32;;;;;;;15.50;75.41;99048.22;4947170;28;20129;-67
2022/11/26 02:47:41;;;;;;;309.65;161.65;;;;;;;15.49;74.89;99041.97;4947179;28;20063;-67
2022/11/26 02:50:37;;;;;;;320.27;168.30;;;;;;;15.81;74.60;99047.00;4946653;28;20071;-66
2022/11/26 02:53:31;;;;;;;307.17;162.55;;;;;;;15.93;74.44;99047.78;4931961;28;20048;-67
2022/11/26 02:56:32;;;;;;;313.25;169.45;;;;;;;16.08;74.19;99060.78;4909459;29;20076;-67
2022/11/26 02:59:21;;;;;;;321.98;171.25;;;;;;;16.10;75.12;99058.66;4918932;28;20084;-66
2022/11/26 03:02:58;;;;;;;322.55;175.07;;;;;;;16.39;74.17;99062.19;4918797;29;20067;-66
2022/11/26 03:05:42;;;;;;;316.42;177.57;;;;;;;16.50;73.90;99068.59;4918013;29;20206;-67
2022/11/26 03:08:32;;;;;;;331.88;178.63;;;;;;;16.71;74.25;99074.38;4915568;29;20052;-68
2022/11/26 03:11:14;;;;;;;340.17;182.80;;;;;;;16.84;73.85;99090.34;4916405;29;20055;-66
2022/11/26 03:14:03;;;;;;;338.08;180.85;;;;;;;16.97;73.64;99084.59;4919215;29;20122;-68
2022/11/26 03:16:45;;;;;;;342.77;187.95;;;;;;;17.31;73.33;99094.59;4900649;29;20729;-67
2022/11/26 03:19:34;;;;;;;349.35;183.48;;;;;;;17.46;73.23;99085.88;4927877;29;20054;-67
2022/11/26 03:22:16;;;;;;;340.55;187.15;;;;;;;17.84;73.04;99086.91;4927399;29;20063;-67
2022/11/26 03:25:05;;;;;;;318.35;180.30;;;;;;;18.02;71.51;99094.78;4927680;29;20464;-68
2022/11/26 03:27:47;;;;;;;315.63;180.32;;;;;;;18.31;70.99;99094.56;4913556;29;20051;-65
2022/11/26 03:30:36;;;;;;;315.73;174.80;;;;;;;18.65;70.06;99095.19;4890556;29;20076;-67
2022/11/26 03:33:32;;;;;;;312.13;176.02;;;;;;;19.08;69.22;99098.00;4920747;28;20559;-67
2022/11/26 03:36:08;;;;;;;302.60;175.52;;;;;;;19.31;69.46;99096.81;4929798;28;20643;-66
2022/11/26 03:38:57;;;;;;;310.42;182.98;;;;;;;19.63;69.14;99091.28;4931651;28;20722;-68
2022/11/26 03:41:42;;;;;;;319.48;180.02;;;;;;;19.90;68.17;99096.63;4930752;29;20048;-68
2022/11/26 03:44:38;;;;;;;316.58;180.02;;;;;;;20.31;67.20;99101.38;4930714;29;20417;-68
2022/11/26 03:47:14;;;;;;;301.50;180.48;;;;;;;20.67;65.72;99102.34;4914222;29;20059;-68
2022/11/26 03:50:05;;;;;;;302.08;182.93;;;;;;;20.91;65.49;99102.63;4918132;28;20048;-66
2022/11/26 03:52:47;;;;;;;303.23;180.18;;;;;;;21.16;65.39;99106.44;4911780;29;20139;-68
2022/11/26 03:55:45;;;;;;;308.33;177.60;;;;;;;21.43;63.76;99100.66;4928228;28;20047;-68
2022/11/26 03:58:21;;;;;;;313.65;180.20;;;;;;;21.86;62.14;99109.31;4930465;29;20062;-67
2022/11/26 04:01:12;;;;;;;304.30;178.15;;;;;;;22.14;61.03;99103.47;4930173;29;20059;-67
2022/11/26 04:03:54;;;;;;;298.33;182.25;;;;;;;22.42;59.01;99108.28;4920670;29;20051;-67
2022/11/26 04:06:50;;;;;;;305.02;188.35;;;;;;;22.56;58.65;99110.38;4930551;29;20087;-67
2022/11/26 04:09:26;;;;;;;305.85;186.00;;;;;;;22.59;58.62;99107.09;4929561;28;20071;-67
2022/11/26 04:12:15;;;;;;;300.67;186.10;;;;;;;22.77;58.99;99105.59;4914987;29;20143;-67
2022/11/26 04:14:57;;;;;;;314.20;193.20;;;;;;;22.77;59.17;99100.91;4930894;29;20056;-68
2022/11/26 04:17:46;;;;;;;303.80;187.80;;;;;;;22.98;59.75;99095.28;4930577;29;20075;-67
2022/11/26 04:20:28;;;;;;;314.65;192.85;;;;;;;23.06;57.76;99091.97;4929393;29;20502;-67
2022/11/26 04:23:17;;;;;;;303.33;190.00;;;;;;;23.14;56.18;99093.25;4940248;28;20051;-66
2022/11/26 04:25:59;;;;;;;320.88;196.23;;;;;;;23.30;56.63;99093.97;4949735;28;20054;-67
2022/11/26 04:28:49;;;;;;;316.63;193.52;;;;;;;23.20;58.93;99094.88;4949671;28;20387;-67
2022/11/26 04:31:31;;;;;;;315.27;196.63;;;;;;;23.18;58.40;99092.41;4949244;28;20062;-67
2022/11/26 04:34:20;;;;;;;317.15;194.25;;;;;;;23.23;59.68;99089.66;4930146;29;20087;-67
2022/11/26 04:37:02;;;;;;;320.67;193.88;;;;;;;23.28;58.81;99093.44;4930380;29;20052;-65
2022/11/26 04:39:51;;;;;;;314.95;194.73;;;;;;;23.28;60.86;99088.75;4932182;29;20051;-64
2022/11/26 04:42:33;;;;;;;301.85;192.60;;;;;;;23.17;60.19;99085.28;4929983;29;20071;-65
2022/11/26 04:45:22;;;;;;;303.88;191.43;;;;;;;23.21;61.43;99086.34;4913659;29;20142;-65
2022/11/26 04:48:04;;;;;;;303.60;189.80;;;;;;;23.16;60.47;99091.06;4928528;29;20047;-65
2022/11/26 04:51:00;;;;;;;304.15;191.05;;;;;;;23.16;60.83;99091.91;4926743;29;20044;-65
2022/11/26 04:53:36;;;;;;;300.17;189.18;;;;;;;22.90;61.62;99095.91;4928433;29;20055;-65
2022/11/26 04:56:31;;;;;;;290.33;178.95;;;;;;;23.20;58.54;99098.41;4928505;29;20051;-65
2022/11/26 04:59:20;;;;;;;280.60;168.45;;;;;;;23.44;54.68;99098.47;4926057;29;20087;-64
2022/11/26 05:02:09;;;;;;;272.48;161.75;;;;;;;23.46;56.57;99089.94;4907665;29;20051;-65
2022/11/26 05:04:51;;;;;;;277.92;164.90;;;;;;;23.30;57.69;99097.50;4928270;29;20055;-65
2022/11/26 05:07:40;;;;;;;285.20;168.07;;;;;;;23.31;57.61;99092.84;4926695;29;20067;-64
2022/11/26 05:10:22;;;;;;;281.73;169.23;;;;;;;23.51;56.95;99100.84;4926794;29;20491;-66
2022/11/26 05:13:11;;;;;;;266.83;159.43;;;;;;;23.62;56.41;99091.44;4909616;29;20679;-64
2022/11/26 05:15:53;;;;;;;287.20;153.70;;;;;;;23.50;53.31;99087.44;4913772;29;20049;-64
2022/11/26 05:18:42;;;;;;;244.43;132.50;;;;;;;23.51;52.24;99087.16;4931175;29;20051;-64
2022/11/26 05:21:24;;;;;;;214.95;127.45;;;;;;;23.63;52.13;99089.50;4947065;28;20054;-64
2022/11/26 05:24:13;;;;;;;219.98;128.00;;;;;;;23.72;56.72;99089.69;4941125;28;20503;-64
2022/11/26 05:26:55;;;;;;;220.07;127.22;;;;;;;23.94;54.39;99081.78;4930743;28;20090;-64
2022/11/26 05:29:44;;;;;;;180.20;112.18;;;;;;;23.88;50.09;99082.91;4944729;28;20047;-64
2022/11/26 05:32:26;;;;;;;173.52;107.00;;;;;;;24.14;52.99;99082.63;4947509;28;20712;-63
2022/11/26 05:35:16;;;;;;;163.82;102.63;;;;;;;24.31;51.63;99076.63;4947530;28;20129;-63
2022/11/26 05:38:12;;;;;;;170.13;102.20;;;;;;;24.51;50.11;99086.47;4910558;29;20060;-65
2022/11/26 05:41:07;;;;;;;163.93;98.70;;;;;;;24.64;48.59;99077.53;4911684;29;20088;-67
2022/11/26 05:43:43;;;;;;;183.45;100.68;;;;;;;24.29;48.32;99065.94;4927039;29;20574;-69
2022/11/26 05:46:32;;;;;;;185.70;98.17;;;;;;;24.55;48.39;99071.91;4927597;28;20554;-66
2022/11/26 05:49:16;;;;;;;169.07;98.78;;;;;;;24.78;47.29;99064.69;4930002;28;20496;-65
2022/11/26 05:52:11;;;;;;;152.43;87.65;;;;;;;24.49;47.07;99058.53;4931499;29;20065;-68
2022/11/26 05:54:59;;;;;;;154.07;92.28;;;;;;;24.97;49.56;99056.41;4931150;28;20058;-67
2022/11/26 05:57:48;;;;;;;164.63;91.22;;;;;;;25.04;46.47;99044.22;4936678;28;20138;-66
2022/11/26 06:00:30;;;;;;;150.73;85.05;;;;;;;25.18;47.27;99034.91;4933900;28;20055;-67
2022/11/26 06:03:19;;;;;;;115.90;66.53;;;;;;;24.78;45.15;99033.66;4935503;28;20047;-67
2022/11/26 06:06:01;;;;;;;121.65;65.38;;;;;;;25.15;45.93;99037.44;4940534;28;20122;-67
2022/11/26 06:08:57;;;;;;;129.80;78.03;;;;;;;24.71;46.56;99028.56;4937969;28;20055;-67
2022/11/26 06:11:32;;;;;;;140.82;79.60;;;;;;;25.17;45.76;99026.97;4934367;29;20501;-67
2022/11/26 06:14:21;;;;;;;108.47;63.80;;;;;;;24.84;46.92;99035.22;4934055;28;20152;-66
2022/11/26 06:17:10;;;;;;;94.43;55.25;;;;;;;24.43;44.91;99025.69;4945158;28;20051;-63
2022/11/26 06:19:52;;;;;;;102.25;58.45;;;;;;;24.94;44.63;99035.03;4930570;28;20671;-65
2022/11/26 06:22:45;;;;;;;102.18;56.13;;;;;;;24.96;45.11;99034.75;4928279;29;20055;-64
2022/11/26 06:25:34;;;;;;;100.70;56.97;;;;;;;25.34;45.92;99027.22;4927494;29;20127;-61
2022/11/26 06:28:16;;;;;;;102.35;61.53;;;;;;;25.37;45.89;99023.03;4927699;29;20146;-67
2022/11/26 06:31:07;;;;;;;120.65;69.28;;;;;;;25.25;44.51;99018.03;4928610;29;20356;-66
2022/11/26 06:33:49;;;;;;;134.77;74.72;;;;;;;25.37;45.80;99015.63;4944365;28;20059;-68
2022/11/26 06:36:38;;;;;;;152.52;85.50;;;;;;;24.78;45.96;99012.53;4943632;28;20137;-68
2022/11/26 06:39:20;;;;;;;154.57;90.30;;;;;;;24.99;45.52;99009.41;4924804;29;20093;-69
2022/11/26 06:42:09;;;;;;;157.40;91.43;;;;;;;25.17;45.79;99004.97;4927502;29;20138;-65
2022/11/26 06:44:51;;;;;;;162.50;90.63;;;;;;;25.14;46.51;99000.91;4922956;29;20406;-65
2022/11/26 06:47:47;;;;;;;160.18;91.88;;;;;;;25.15;45.56;98990.75;4923866;29;20051;-64
2022/11/26 06:50:23;;;;;;;135.40;76.90;;;;;;;24.94;44.87;98979.31;4909994;29;20059;-66
2022/11/26 06:53:12;;;;;;;116.38;68.82;;;;;;;24.74;45.04;98975.81;4923298;29;20495;-63
2022/11/26 06:55:54;;;;;;;109.50;58.40;;;;;;;24.91;44.76;98977.19;4908640;28;20052;-66
2022/11/26 06:58:45;;;;;;;86.68;49.78;;;;;;;25.16;43.71;98973.13;4916065;28;20055;-64
2022/11/26 07:01:31;;;;;;;94.95;49.60;;;;;;;25.36;44.18;98969.22;4903765;29;25696;-66
2022/11/26 07:04:27;;;;;;;122.87;52.07;;;;;;;25.31;43.64;98966.56;4920328;28;20099;-62
2022/11/26 07:07:03;;;;;;;101.10;51.42;;;;;;;25.01;42.47;98958.59;4929265;28;20048;-64
2022/11/26 07:09:51;;;;;;;96.00;52.30;;;;;;;25.46;43.24;98946.22;4930189;28;20044;-63
2022/11/26 07:12:35;;;;;;;90.80;45.75;;;;;;;25.33;41.92;98954.13;4913550;29;20052;-64
2022/11/26 07:15:24;;;;;;;80.05;46.65;;;;;;;25.58;42.55;98943.75;4909079;29;20472;-62
2022/11/26 07:18:06;;;;;;;89.72;46.83;;;;;;;25.81;45.76;98939.09;4914827;29;20051;-61
2022/11/26 07:20:56;;;;;;;86.80;46.95;;;;;;;25.92;42.45;98948.78;4911663;29;20072;-65
2022/11/26 07:23:38;;;;;;;81.78;49.63;;;;;;;25.62;45.74;98931.00;4920353;28;20051;-63
2022/11/26 07:26:27;;;;;;;78.30;46.20;;;;;;;25.74;42.59;98927.75;4931517;29;20079;-64
2022/11/26 07:29:16;;;;;;;81.10;44.80;;;;;;;25.75;40.64;98926.59;4923676;29;20068;-69
2022/11/26 07:31:59;;;;;;;84.82;45.95;;;;;;;25.80;41.08;98915.50;4922721;28;20052;-65
2022/11/26 07:34:48;;;;;;;71.57;41.75;;;;;;;26.06;43.38;98914.94;4930943;28;20269;-68
2022/11/26 07:37:32;;;;;;;75.50;42.65;;;;;;;25.96;42.35;98903.03;4931242;29;20411;-65
2022/11/26 07:40:21;;;;;;;77.47;44.67;;;;;;;25.68;40.86;98902.31;4931156;28;20062;-65
2022/11/26 07:43:04;;;;;;;77.10;46.42;;;;;;;25.62;40.55;98888.97;4923698;28;20131;-62
2022/11/26 07:45:53;;;;;;;72.38;43.45;;;;;;;25.86;42.33;98891.47;4913035;29;20044;-65
2022/11/26 07:48:38;;;;;;;81.75;42.08;;;;;;;25.76;39.16;98885.06;4910841;29;20675;-63
2022/11/26 07:51:29;;;;;;;63.08;37.42;;;;;;;25.38;38.30;98879.88;4916810;29;20671;-66
2022/11/26 07:54:17;;;;;;;68.45;37.05;;;;;;;25.79;38.11;98878.97;4921209;29;20135;-68
2022/11/26 07:57:12;;;;;;;58.78;36.65;;;;;;;26.03;39.74;98877.06;4942842;28;20414;-65
2022/11/26 07:59:48;;;;;;;67.15;36.33;;;;;;;26.04;40.89;98879.47;4939944;28;20039;-65
2022/11/26 08:02:44;;;;;;;63.13;38.13;;;;;;;25.83;39.38;98873.63;4935733;29;20538;-67
2022/11/26 08:05:26;;;;;;;69.97;37.78;;;;;;;25.79;39.01;98859.72;4930507;29;20566;-68
2022/11/26 08:08:22;;;;;;;65.65;35.92;;;;;;;25.74;41.31;98861.78;4939549;28;20044;-68
2022/11/26 08:10:58;;;;;;;70.25;36.17;;;;;;;25.71;37.61;98865.13;4941448;28;20059;-69
2022/11/26 08:13:53;;;;;;;53.35;31.80;;;;;;;26.04;37.54;98859.41;4935480;28;20375;-72
2022/11/26 08:16:29;;;;;;;50.55;28.50;;;;;;;26.07;35.37;98856.88;4930213;28;20503;-70
2022/11/26 08:19:18;;;;;;;50.23;28.03;;;;;;;26.06;37.27;98843.41;4935368;28;20371;-69
2022/11/26 08:22:00;;;;;;;49.95;29.35;;;;;;;26.12;37.11;98842.16;4938564;28;20046;-65
2022/11/26 08:24:56;;;;;;;53.03;30.35;;;;;;;26.05;38.63;98830.81;4933031;28;20114;-66
2022/11/26 08:27:32;;;;;;;54.47;31.70;;;;;;;25.77;38.01;98830.88;4927557;29;20462;-68
2022/11/26 08:30:27;;;;;;;58.53;34.78;;;;;;;25.90;39.19;98827.28;4929221;29;20051;-66
2022/11/26 08:33:03;;;;;;;57.83;33.92;;;;;;;26.09;37.71;98820.81;4928283;29;20055;-65
2022/11/26 08:36:02;;;;;;;57.60;33.85;;;;;;;26.01;39.00;98821.56;4925869;29;20539;-65
2022/11/26 08:38:42;;;;;;;60.65;33.22;;;;;;;26.02;38.32;98820.44;4917909;29;20047;-66
2022/11/26 08:41:31;;;;;;;56.08;33.15;;;;;;;26.24;36.88;98816.84;4912029;29;20502;-67
2022/11/26 08:44:20;;;;;;;47.45;29.15;;;;;;;26.12;35.10;98809.16;4935183;29;20055;-65
2022/11/26 08:47:02;;;;;;;58.03;31.58;;;;;;;26.14;37.56;98809.69;4932853;28;20802;-63
2022/11/26 08:49:51;;;;;;;53.38;31.50;;;;;;;26.00;36.67;98806.97;4938470;29;20701;-64
2022/11/26 08:52:33;;;;;;;51.55;30.08;;;;;;;26.13;37.00;98810.78;4924074;28;20051;-65
2022/11/26 08:55:28;;;;;;;50.78;29.40;;;;;;;26.10;35.95;98803.16;4931863;28;20166;-64
2022/11/26 08:58:50;;;;;;;50.95;29.60;;;;;;;26.16;37.80;98799.16;4913136;29;20055;-66
2022/11/26 09:01:29;;;;;;;46.67;28.33;;;;;;;26.09;36.65;98796.06;4919714;29;20067;-65
2022/11/26 09:04:24;;;;;;;46.63;28.63;;;;;;;26.17;35.85;98795.28;4918826;29;20071;-64
2022/11/26 09:06:59;;;;;;;54.35;28.85;;;;;;;26.00;36.14;98795.19;4921612;29;20063;-63
2022/11/26 09:09:48;;;;;;;52.40;30.10;;;;;;;26.02;36.71;98792.94;4920161;29;20060;-63
2022/11/26 09:12:30;;;;;;;52.53;31.52;;;;;;;25.94;36.90;98787.06;4903168;29;20056;-64
2022/11/26 09:15:19;;;;;;;55.05;31.42;;;;;;;25.91;37.86;98782.19;4916365;29;20072;-62
2022/11/26 09:18:08;;;;;;;53.28;33.78;;;;;;;25.88;37.98;98781.97;4921616;29;20060;-65
2022/11/26 09:21:02;;;;;;;60.75;32.92;;;;;;;25.87;38.22;98777.59;4922976;29;20066;-59
2022/11/26 09:23:44;;;;;;;55.20;34.08;;;;;;;25.83;38.72;98782.09;4915228;29;20055;-62
2022/11/26 09:26:33;;;;;;;59.53;32.88;;;;;;;25.85;38.21;98772.41;4916126;29;20590;-60
2022/11/26 09:29:25;;;;;;;52.78;33.03;;;;;;;25.94;38.64;98773.31;4918062;29;20513;-64
2022/11/26 09:32:08;;;;;;;51.03;31.25;;;;;;;25.81;38.28;98774.16;4912153;29;20048;-64
2022/11/26 09:35:09;;;;;;;50.88;27.13;;;;;;;25.82;36.65;98767.53;4918500;29;20052;-65
2022/11/26 09:37:51;;;;;;;42.28;27.20;;;;;;;25.82;36.88;98762.03;4917549;29;20162;-65
2022/11/26 09:40:55;;;;;;;54.10;27.52;;;;;;;25.86;36.18;98763.03;4898474;29;20167;-65
2022/11/26 09:44:02;;;;;;;;;;;;;;;25.99;35.36;98761.38;4911217;29;20055;-64
2022/11/26 09:46:56;;;;;;;43.53;26.20;;;;;;;25.78;34.98;98758.31;4909622;29;19978;-64
2022/11/26 09:50:04;;;;;;;40.72;23.83;;;;;;;25.86;34.87;98752.03;4912588;29;20147;-61
2022/11/26 09:52:56;;;;;;;44.67;25.15;;;;;;;25.80;36.57;98756.06;4923050;29;20480;-61
2022/11/26 09:55:49;;;;;;;44.33;25.67;;;;;;;25.70;37.54;98756.28;4932521;28;20583;-60
2022/11/26 09:58:46;;;;;;;48.25;26.55;;;;;;;25.59;36.06;98751.06;4937897;28;20058;-65
2022/11/26 10:01:42;;;;;;;43.22;25.88;;;;;;;25.65;37.17;98748.19;4947282;28;20522;-64
2022/11/26 10:04:32;;;;;;;43.15;26.83;;;;;;;25.58;36.48;98746.69;4936730;28;20048;-69
2022/11/26 10:07:49;;;;;;;49.28;27.15;;;;;;;25.58;38.13;98745.88;4905754;28;20062;-62
2022/11/26 10:11:12;;;;;;;49.38;28.10;;;;;;;25.52;38.57;98742.44;4930014;28;20130;-63
2022/11/26 10:14:17;;;;;;;52.65;27.58;;;;;;;25.46;38.90;98732.69;4928556;28;20435;-62
2022/11/26 10:17:18;;;;;;;51.10;28.42;;;;;;;25.38;39.91;98733.44;4930311;29;20121;-67
2022/11/26 10:20:27;;;;;;;52.17;27.90;;;;;;;25.38;39.58;98730.72;4929246;29;20055;-60
2022/11/26 10:23:19;;;;;;;46.92;27.02;;;;;;;25.33;38.73;98733.56;4925361;28;20067;-66
2022/11/26 10:26:15;;;;;;;62.63;27.45;;;;;;;25.28;38.87;98730.94;4928877;28;20061;-63
2022/11/26 10:29:31;;;;;;;40.92;25.60;;;;;;;25.23;38.05;98731.88;4926704;29;20068;-60
2022/11/26 10:32:31;;;;;;;54.08;25.83;;;;;;;25.02;41.35;98718.56;4929878;29;20174;-63
2022/11/26 10:35:22;;;;;;;45.90;26.73;;;;;;;24.89;40.17;98722.16;4929516;29;20104;-68
2022/11/26 10:38:04;;;;;;;46.25;26.88;;;;;;;24.90;40.86;98720.25;4928162;29;20730;-62
2022/11/26 10:40:53;;;;;;;48.22;27.13;;;;;;;24.80;41.61;98713.88;4930115;29;20122;-66
2022/11/26 10:43:42;;;;;;;47.22;25.27;;;;;;;24.81;40.67;98714.66;4928886;28;20063;-62
2022/11/26 10:46:41;;;;;;;47.78;26.80;;;;;;;24.62;41.83;98707.38;4929721;28;20058;-62
2022/11/26 10:49:26;;;;;;;40.42;24.85;;;;;;;24.41;43.38;98715.19;4587151;28;10001295;-67
2022/11/26 10:52:16;;;;;;;55.30;26.55;;;;;;;24.47;41.69;98715.88;4925524;29;20126;-67
2022/11/26 10:55:29;;;;;;;49.65;27.10;;;;;;;24.31;45.96;98709.91;4927857;29;20468;-66
2022/11/26 10:58:28;;;;;;;44.15;26.88;;;;;;;24.27;43.95;98705.31;4924509;29;20447;-65
2022/11/26 11:01:14;;;;;;;45.92;28.25;;;;;;;24.16;45.08;98697.31;4927201;29;20106;-66
2022/11/26 11:04:15;;;;;;;51.10;27.92;;;;;;;24.08;44.34;98706.25;4927574;29;20162;-64
2022/11/26 11:06:51;;;;;;;51.08;28.08;;;;;;;23.85;46.19;98702.56;4927884;29;20063;-64
2022/11/26 11:09:46;;;;;;;49.78;28.73;;;;;;;23.81;45.72;98696.06;4926371;29;20154;-67
2022/11/26 11:12:23;;;;;;;56.80;29.40;;;;;;;23.71;47.81;98704.41;4929089;29;20090;-64
2022/11/26 11:15:31;;;;;;;49.85;28.40;;;;;;;23.57;47.57;98704.38;4932200;29;20071;-65
2022/11/26 11:18:22;;;;;;;49.00;29.00;;;;;;;23.43;49.20;98698.88;4933225;28;20090;-66
2022/11/26 11:21:06;;;;;;;60.03;29.42;;;;;;;23.37;49.81;98703.63;4927557;29;20365;-65
2022/11/26 11:24:14;;;;;;;49.63;29.85;;;;;;;23.16;52.81;98697.66;4926149;29;20146;-67
2022/11/26 11:26:59;;;;;;;56.58;30.83;;;;;;;23.01;52.53;98698.66;4926422;28;20056;-63
2022/11/26 11:29:50;;;;;;;50.58;29.80;;;;;;;22.83;53.76;98692.09;4926981;28;20056;-62
2022/11/26 11:32:42;;;;;;;50.92;29.42;;;;;;;22.79;51.83;98690.22;4928946;29;20059;-61
2022/11/26 11:35:38;;;;;;;64.72;31.42;;;;;;;22.56;53.50;98695.44;4925955;29;20079;-63
2022/11/26 11:38:22;;;;;;;60.33;30.15;;;;;;;22.42;54.29;98691.81;4930218;29;20548;-58
2022/11/26 11:41:21;;;;;;;56.40;29.73;;;;;;;22.29;54.33;98696.84;4930843;28;20138;-60
2022/11/26 11:44:42;;;;;;;49.80;29.10;;;;;;;22.20;54.93;98697.75;4929852;28;20462;-62
2022/11/26 11:47:49;;;;;;;57.45;30.48;;;;;;;22.04;55.31;98694.41;4937941;28;20743;-60
2022/11/26 11:50:49;;;;;;;55.95;29.80;;;;;;;22.00;55.85;98688.69;4934031;28;20043;-65
2022/11/26 11:53:31;;;;;;;59.60;30.67;;;;;;;21.92;56.22;98691.22;4942009;28;20047;-64
2022/11/26 11:56:37;;;;;;;53.58;30.45;;;;;;;21.80;56.27;98688.91;4927036;29;20055;-62
2022/11/26 11:59:46;;;;;;;54.80;29.50;;;;;;;21.66;57.43;98692.28;4930126;28;20400;-63
2022/11/26 12:03:20;;;;;;;57.42;30.48;;;;;;;21.63;55.99;98684.69;4936036;28;20534;-60
2022/11/26 12:06:18;;;;;;;62.58;31.73;;;;;;;21.51;56.80;98689.72;4932668;28;20177;-60
2022/11/26 12:09:40;;;;;;;61.58;31.70;;;;;;;21.40;57.39;98699.06;4928396;29;20147;-59
2022/11/26 12:12:36;;;;;;;64.22;32.15;;;;;;;21.22;57.89;98693.19;4930685;29;20055;-61
2022/11/26 12:15:35;;;;;;;67.95;32.90;;;;;;;21.18;57.70;98700.31;4944759;28;20165;-58
2022/11/26 12:18:33;;;;;;;76.78;34.30;;;;;;;21.07;58.54;98696.84;4933032;28;20048;-61
2022/11/26 12:21:15;;;;;;;86.65;33.50;;;;;;;20.99;58.72;98696.63;4931031;28;20050;-59
2022/11/26 12:24:22;;;;;;;85.65;34.20;;;;;;;20.99;59.11;98707.56;4939270;29;20130;-61
2022/11/26 12:27:36;;;;;;;94.40;33.80;;;;;;;20.84;59.69;98716.63;4928620;29;20047;-60
2022/11/26 12:30:30;;;;;;;79.97;33.80;;;;;;;20.73;60.04;98713.97;4925371;29;20051;-59
2022/11/26 12:33:51;;;;;;;63.72;32.30;;;;;;;20.76;60.26;98712.59;4929985;29;20147;-62
2022/11/26 12:37:12;;;;;;;89.93;34.03;;;;;;;20.64;60.26;98715.66;4911863;28;20040;-62
2022/11/26 12:39:54;;;;;;;67.88;33.75;;;;;;;20.64;60.47;98714.84;4938331;28;20070;-60
2022/11/26 12:43:47;;;;;;;72.82;34.70;;;;;;;20.61;60.79;98715.38;4926548;29;20146;-60
2022/11/26 12:47:11;;;;;;;62.72;33.83;;;;;;;20.42;62.13;98710.50;4909603;28;20505;-60
2022/11/26 12:50:22;;;;;;;61.63;33.83;;;;;;;20.42;61.28;98715.16;4935634;28;20046;-60
2022/11/26 12:53:26;;;;;;;67.28;36.20;;;;;;;20.38;62.31;98722.28;4930287;29;20353;-59
2022/11/26 12:56:40;;;;;;;66.68;36.38;;;;;;;20.35;62.42;98720.94;4933121;28;20035;-60
2022/11/26 12:59:30;;;;;;;69.82;35.05;;;;;;;20.18;62.76;98726.69;4946494;28;20755;-58